Time;durP1;ratioP1;P1;durP2;ratioP2;P2;SDS_P1;SDS_P2;PMS_P1;PMS_P2;Temp;Humidity;BMP_temperature;BMP_pressure;BME280_temperature;BME280_humidity;BME280_pressure;Samples;Min_cycle;Max_cycle;Signal;HPM_P1;HPM_P2
2022/09/24 00:01:13;;;;;;;13.67;12.30;;;15.20;95.80;;;;;;5040315;28;20236;-91
2022/09/24 00:03:41;;;;;;;15.17;13.57;;;15.10;96.70;;;;;;5039799;28;20175;-91
2022/09/24 00:06:07;;;;;;;16.10;14.33;;;15.10;96.90;;;;;;5041124;28;20215;-91
2022/09/24 00:08:34;;;;;;;16.00;14.20;;;15.10;96.90;;;;;;5041414;28;20212;-91
2022/09/24 00:11:03;;;;;;;16.43;13.93;;;15.20;97.00;;;;;;5042163;28;20176;-91
2022/09/24 00:13:31;;;;;;;16.63;13.77;;;15.20;95.80;;;;;;5050311;28;20172;-91
2022/09/24 00:16:02;;;;;;;15.70;12.73;;;15.20;95.50;;;;;;5060570;28;20180;-91
2022/09/24 00:18:29;;;;;;;15.27;13.67;;;15.20;94.40;;;;;;5060568;28;20191;-91
2022/09/24 00:20:56;;;;;;;16.37;13.53;;;15.20;94.40;;;;;;5050193;28;20167;-91
2022/09/24 00:23:24;;;;;;;15.37;12.53;;;15.20;94.50;;;;;;5058526;28;20172;-91
2022/09/24 00:28:42;;;;;;;14.47;12.33;;;15.40;92.40;;;;;;4995657;28;20159;-90
2022/09/24 00:31:09;;;;;;;14.07;12.57;;;15.60;87.10;;;;;;5059345;28;20612;-91
2022/09/24 00:33:36;;;;;;;15.47;12.50;;;15.50;86.30;;;;;;5051565;28;20187;-90
2022/09/24 00:36:04;;;;;;;12.77;11.47;;;15.30;90.00;;;;;;5053610;28;20291;-91
2022/09/24 00:38:31;;;;;;;12.90;11.60;;;15.20;92.10;;;;;;5060092;28;20172;-91
2022/09/24 00:40:59;;;;;;;12.87;11.57;;;15.20;92.90;;;;;;5046784;28;20179;-91
2022/09/24 00:43:28;;;;;;;14.00;11.53;;;15.20;92.90;;;;;;5062103;28;20160;-92
2022/09/24 00:46:24;;;;;;;12.87;11.57;;;15.20;92.70;;;;;;5061352;28;20233;-91
2022/09/24 00:48:56;;;;;;;13.13;10.67;;;15.00;93.50;;;;;;4988356;28;20168;-92
2022/09/24 00:51:25;;;;;;;13.17;11.20;;;15.00;95.10;;;;;;4979286;28;20179;-91
2022/09/24 00:53:58;;;;;;;12.53;10.50;;;14.90;95.60;;;;;;4975631;28;20175;-91
2022/09/24 00:56:24;;;;;;;12.30;10.50;;;14.90;95.50;;;;;;4975133;28;20216;-90
2022/09/24 00:58:55;;;;;;;12.97;11.57;;;14.90;96.60;;;;;;4975133;28;20176;-91
2022/09/24 01:01:23;;;;;;;14.03;11.73;;;14.90;97.80;;;;;;4977826;28;20187;-92
2022/09/24 01:03:51;;;;;;;12.90;11.50;;;15.00;97.20;;;;;;4986305;28;20262;-92
2022/09/24 01:06:17;;;;;;;13.27;11.80;;;14.90;96.70;;;;;;4980797;28;20314;-92
2022/09/24 01:08:44;;;;;;;15.70;13.03;;;14.90;96.90;;;;;;4980013;28;20622;-91
2022/09/24 01:11:16;;;;;;;14.67;11.77;;;14.70;97.90;;;;;;4977185;28;20647;-92
2022/09/24 01:14:06;;;;;;;15.33;13.00;;;15.00;98.60;;;;;;4977019;28;20160;-91
2022/09/24 01:16:40;;;;;;;14.70;13.10;;;14.90;98.80;;;;;;4976550;28;20184;-92
2022/09/24 01:19:51;;;;;;;17.97;14.30;;;14.90;99.40;;;;;;4976782;28;21110;-91
2022/09/24 01:22:36;;;;;;;16.47;12.97;;;14.90;99.00;;;;;;4993873;28;20202;-90
2022/09/24 01:25:20;;;;;;;18.37;14.73;;;14.90;99.80;;;;;;4974659;28;20305;-91
2022/09/24 01:28:22;;;;;;;16.33;14.43;;;14.90;99.90;;;;;;4975607;28;20262;-92
2022/09/24 01:30:54;;;;;;;16.30;14.60;;;14.90;99.90;;;;;;4982053;28;20183;-91
2022/09/24 01:33:24;;;;;;;17.37;15.00;;;15.00;99.90;;;;;;4973366;28;20232;-91
2022/09/24 01:35:57;;;;;;;16.73;14.30;;;15.10;99.90;;;;;;4974294;28;20179;-92
2022/09/24 01:38:33;;;;;;;17.47;15.63;;;15.10;99.90;;;;;;4974079;28;20183;-91
2022/09/24 01:41:02;;;;;;;17.03;15.20;;;15.10;99.90;;;;;;4973856;28;20191;-92
2022/09/24 01:43:29;;;;;;;17.97;15.33;;;15.20;99.30;;;;;;4976619;28;20202;-91
2022/09/24 01:45:57;;;;;;;16.93;15.17;;;15.10;98.90;;;;;;4979913;28;20219;-92
2022/09/24 01:48:24;;;;;;;17.70;15.80;;;15.00;99.30;;;;;;4974068;28;20176;-91
2022/09/24 01:51:10;;;;;;;18.23;15.97;;;15.00;99.90;;;;;;4974904;28;20176;-90
2022/09/24 01:53:47;;;;;;;17.10;15.30;;;15.10;99.90;;;;;;4990489;28;20179;-91
2022/09/24 01:56:50;;;;;;;17.30;15.47;;;15.10;99.90;;;;;;4997729;28;20159;-91
2022/09/24 01:59:29;;;;;;;19.30;15.87;;;15.30;97.00;;;;;;4996324;28;20156;-92
2022/09/24 02:02:06;;;;;;;18.20;16.30;;;15.30;95.60;;;;;;4997271;28;20234;-92
2022/09/24 02:04:38;;;;;;;18.97;16.20;;;15.40;94.20;;;;;;4997433;28;20207;-92
2022/09/24 02:07:12;;;;;;;18.03;16.23;;;15.10;95.50;;;;;;4978642;28;20257;-92
2022/09/24 02:09:40;;;;;;;20.30;15.57;;;15.00;98.30;;;;;;4975683;28;20175;-92
2022/09/24 02:12:31;;;;;;;18.07;16.07;;;15.10;99.00;;;;;;4974735;28;20188;-92
2022/09/24 02:15:13;;;;;;;19.30;15.40;;;15.00;99.90;;;;;;4975417;28;20176;-92
2022/09/24 02:17:42;;;;;;;16.07;14.40;;;15.20;99.30;;;;;;4973891;28;20179;-91
2022/09/24 02:20:20;;;;;;;19.17;16.60;;;15.40;99.00;;;;;;4974132;28;20644;-92
2022/09/24 02:22:48;;;;;;;16.90;15.13;;;15.20;97.60;;;;;;4996704;28;20167;-92
2022/09/24 02:25:19;;;;;;;19.27;15.70;;;15.20;96.70;;;;;;4997292;28;20214;-91
2022/09/24 02:27:45;;;;;;;18.67;15.23;;;15.10;97.50;;;;;;4996057;28;20175;-91
2022/09/24 02:30:11;;;;;;;16.97;14.87;;;15.20;99.10;;;;;;4997316;28;20190;-90
2022/09/24 02:32:42;;;;;;;17.63;15.63;;;15.00;99.90;;;;;;4997174;28;20166;-91
2022/09/24 02:35:12;;;;;;;17.60;14.93;;;14.90;99.90;;;;;;4996515;28;20190;-91
2022/09/24 02:37:42;;;;;;;18.63;15.90;;;14.90;99.90;;;;;;4957582;28;20176;-91
2022/09/24 02:40:11;;;;;;;18.37;15.80;;;14.90;99.90;;;;;;4973167;28;20176;-91
2022/09/24 02:42:37;;;;;;;17.23;15.40;;;14.90;99.90;;;;;;4972682;28;20168;-92
2022/09/24 02:45:04;;;;;;;17.67;15.47;;;15.00;99.90;;;;;;4973689;28;20207;-91
2022/09/24 02:47:29;;;;;;;18.57;16.40;;;15.00;99.90;;;;;;4974704;28;20183;-91
2022/09/24 02:49:56;;;;;;;19.47;15.83;;;14.90;99.90;;;;;;4992472;28;20166;-90
2022/09/24 02:52:23;;;;;;;19.23;16.03;;;14.90;99.90;;;;;;4997453;28;20168;-90
2022/09/24 02:54:49;;;;;;;18.37;16.40;;;14.90;99.90;;;;;;4997024;28;20246;-91
2022/09/24 02:57:22;;;;;;;17.23;15.43;;;14.90;99.90;;;;;;4996184;28;20210;-90
2022/09/24 02:59:51;;;;;;;18.67;15.77;;;15.00;99.90;;;;;;4997265;28;20216;-91
2022/09/24 03:02:18;;;;;;;19.07;16.07;;;14.80;99.90;;;;;;4995225;28;20217;-91
2022/09/24 03:04:45;;;;;;;18.43;16.27;;;14.80;99.90;;;;;;4988276;28;20311;-90
2022/09/24 03:07:13;;;;;;;19.67;16.23;;;14.70;99.90;;;;;;4978068;28;20201;-90
2022/09/24 03:09:39;;;;;;;18.17;16.20;;;14.80;99.90;;;;;;4978148;28;20624;-92
2022/09/24 03:12:06;;;;;;;18.80;16.30;;;14.70;99.90;;;;;;4975867;28;20183;-91
2022/09/24 03:14:32;;;;;;;18.43;16.27;;;14.70;99.90;;;;;;4978476;28;20171;-91
2022/09/24 03:16:57;;;;;;;19.47;16.97;;;14.90;99.90;;;;;;4990446;28;20190;-92
2022/09/24 03:19:23;;;;;;;19.60;17.30;;;15.00;99.90;;;;;;4994948;28;20167;-93
2022/09/24 03:21:50;;;;;;;18.30;16.40;;;15.00;99.90;;;;;;4991412;28;20187;-91
2022/09/24 03:24:18;;;;;;;18.57;16.33;;;14.70;99.90;;;;;;4978284;28;20689;-93
2022/09/24 03:26:45;;;;;;;20.50;16.77;;;14.70;99.90;;;;;;4973087;28;20631;-93
2022/09/24 03:29:11;;;;;;;19.67;16.87;;;14.70;99.90;;;;;;4993300;28;20183;-92
2022/09/24 03:31:36;;;;;;;19.30;16.50;;;14.60;99.90;;;;;;4974573;28;20172;-93
2022/09/24 03:34:03;;;;;;;19.57;16.70;;;14.60;99.90;;;;;;4956604;28;20208;-91
2022/09/24 03:36:29;;;;;;;19.27;17.07;;;14.60;99.90;;;;;;4971592;28;20573;-92
2022/09/24 03:38:55;;;;;;;19.40;17.30;;;14.60;99.90;;;;;;4972616;28;20184;-92
2022/09/24 03:41:26;;;;;;;20.10;17.43;;;14.60;99.90;;;;;;4972385;28;20243;-92
2022/09/24 03:43:52;;;;;;;18.77;16.77;;;14.60;99.90;;;;;;4978577;28;20198;-91
2022/09/24 03:46:19;;;;;;;20.13;17.70;;;14.60;99.90;;;;;;4991117;28;20230;-91
2022/09/24 03:48:46;;;;;;;20.13;17.63;;;14.60;99.90;;;;;;4975935;28;20179;-91
2022/09/24 03:51:20;;;;;;;19.90;17.00;;;14.60;99.90;;;;;;4973840;28;20624;-91
2022/09/24 03:53:46;;;;;;;20.80;17.87;;;14.50;99.90;;;;;;4972866;28;20179;-91
2022/09/24 03:56:12;;;;;;;20.60;17.20;;;14.40;99.90;;;;;;4972294;28;20179;-92
2022/09/24 03:58:40;;;;;;;22.00;18.07;;;14.40;99.90;;;;;;4972385;28;20556;-91
2022/09/24 04:01:07;;;;;;;22.40;17.00;;;14.40;99.90;;;;;;4975064;28;20215;-92
2022/09/24 04:03:35;;;;;;;20.63;18.20;;;14.40;99.90;;;;;;4971856;28;20176;-91
2022/09/24 04:06:01;;;;;;;19.07;17.07;;;14.50;99.90;;;;;;4980127;28;20219;-91
2022/09/24 04:08:27;;;;;;;19.43;17.30;;;14.50;99.90;;;;;;4987590;28;20175;-90
2022/09/24 04:10:54;;;;;;;20.40;18.30;;;14.40;99.90;;;;;;4988094;28;20201;-90
2022/09/24 04:13:20;;;;;;;20.30;18.20;;;14.50;99.90;;;;;;4989518;28;20176;-91
2022/09/24 04:15:47;;;;;;;19.50;17.47;;;14.40;99.90;;;;;;4988380;28;20187;-90
2022/09/24 04:18:13;;;;;;;19.90;17.80;;;14.50;99.90;;;;;;4987094;28;20179;-90
2022/09/24 04:20:40;;;;;;;20.67;17.27;;;14.50;99.90;;;;;;4988672;28;20168;-92
2022/09/24 04:23:09;;;;;;;22.97;19.87;;;14.50;99.90;;;;;;4974486;28;20544;-92
2022/09/24 04:25:35;;;;;;;19.10;17.10;;;14.50;99.90;;;;;;4974919;28;20204;-91
2022/09/24 04:28:03;;;;;;;20.77;17.50;;;14.50;99.90;;;;;;4972955;28;20255;-90
2022/09/24 04:30:30;;;;;;;20.20;18.13;;;14.40;99.90;;;;;;4972240;28;20180;-92
2022/09/24 04:32:59;;;;;;;19.37;17.27;;;14.50;99.90;;;;;;4972753;28;20172;-90
2022/09/24 04:35:24;;;;;;;21.90;18.57;;;14.60;99.90;;;;;;4971838;28;20191;-91
2022/09/24 04:37:50;;;;;;;22.40;18.40;;;14.50;99.90;;;;;;4971772;28;20659;-91
2022/09/24 04:40:16;;;;;;;21.17;18.43;;;14.50;99.90;;;;;;4971980;28;20188;-92
2022/09/24 04:42:46;;;;;;;20.40;17.73;;;14.60;99.90;;;;;;4972413;28;20676;-92
2022/09/24 04:45:14;;;;;;;19.50;17.43;;;14.60;99.90;;;;;;4992225;28;20219;-90
2022/09/24 04:47:42;;;;;;;20.83;18.33;;;14.70;99.90;;;;;;4993701;28;20176;-90
2022/09/24 04:50:10;;;;;;;21.20;18.13;;;14.60;99.90;;;;;;4993805;28;20164;-91
2022/09/24 04:52:37;;;;;;;25.43;19.47;;;14.50;99.90;;;;;;4995639;28;20156;-91
2022/09/24 04:55:06;;;;;;;21.23;18.73;;;14.70;99.90;;;;;;4984804;28;20636;-91
2022/09/24 04:57:35;;;;;;;21.73;19.30;;;14.60;99.90;;;;;;4977846;28;20195;-92
2022/09/24 05:00:06;;;;;;;20.07;17.93;;;14.60;99.90;;;;;;4977629;28;20175;-91
2022/09/24 05:02:34;;;;;;;20.97;18.70;;;14.60;99.90;;;;;;4976605;28;20237;-90
2022/09/24 05:05:10;;;;;;;23.43;19.20;;;14.60;99.90;;;;;;4977366;28;20581;-91
2022/09/24 05:07:36;;;;;;;20.50;17.43;;;14.60;99.90;;;;;;4982321;28;20608;-93
2022/09/24 05:10:02;;;;;;;20.60;18.23;;;14.70;99.90;;;;;;4974594;28;20183;-93
2022/09/24 05:12:28;;;;;;;23.50;19.10;;;14.70;99.90;;;;;;4974230;28;20222;-93
2022/09/24 05:14:53;;;;;;;26.00;20.13;;;14.70;99.90;;;;;;4992127;28;20184;-92
2022/09/24 05:17:19;;;;;;;23.23;18.60;;;14.70;99.90;;;;;;5042611;28;20543;-93
2022/09/24 05:19:45;;;;;;;21.20;17.93;;;14.70;99.90;;;;;;5041496;28;20184;-93
2022/09/24 05:22:10;;;;;;;21.30;18.67;;;14.60;99.90;;;;;;5046228;28;20164;-91
2022/09/24 05:24:36;;;;;;;22.80;18.67;;;14.70;99.90;;;;;;5064521;28;20172;-92
2022/09/24 05:27:08;;;;;;;20.70;18.30;;;14.80;99.90;;;;;;5065332;28;20178;-92
2022/09/24 05:29:42;;;;;;;21.27;17.93;;;14.80;99.90;;;;;;5059160;28;20175;-92
2022/09/24 05:32:14;;;;;;;21.07;18.33;;;14.70;99.90;;;;;;5063274;28;20251;-92
2022/09/24 05:34:41;;;;;;;21.47;18.47;;;14.70;99.90;;;;;;5066144;28;20206;-91
2022/09/24 05:37:10;;;;;;;22.93;19.47;;;14.70;99.90;;;;;;5065361;28;20163;-91
2022/09/24 05:39:39;;;;;;;23.03;18.43;;;14.70;99.90;;;;;;5045884;28;20176;-91
2022/09/24 05:42:13;;;;;;;22.87;18.43;;;14.70;99.90;;;;;;5046843;28;20176;-93
2022/09/24 05:44:41;;;;;;;19.40;17.30;;;14.90;99.90;;;;;;5045327;28;20183;-92
2022/09/24 05:47:16;;;;;;;21.07;17.17;;;14.70;99.90;;;;;;5051065;28;20211;-92
2022/09/24 05:49:50;;;;;;;21.67;18.63;;;14.80;99.90;;;;;;5057974;28;20660;-92
2022/09/24 05:52:16;;;;;;;22.93;18.90;;;14.70;99.90;;;;;;5065603;28;20167;-91
2022/09/24 05:54:41;;;;;;;22.50;18.97;;;14.80;99.90;;;;;;5065652;28;20198;-91
2022/09/24 05:57:07;;;;;;;22.80;18.00;;;14.90;99.90;;;;;;5051300;28;20237;-92
2022/09/24 05:59:35;;;;;;;23.20;19.83;;;14.90;99.90;;;;;;5043050;28;20180;-92
2022/09/24 06:02:01;;;;;;;21.00;18.20;;;15.00;99.90;;;;;;5042154;28;20258;-90
2022/09/24 06:04:27;;;;;;;25.10;19.10;;;14.90;99.90;;;;;;5041863;28;20225;-92
2022/09/24 06:06:52;;;;;;;24.17;19.13;;;14.90;99.90;;;;;;5042492;28;20222;-94
2022/09/24 06:09:18;;;;;;;22.60;18.57;;;15.00;99.90;;;;;;5054073;28;20240;-92
2022/09/24 06:11:44;;;;;;;22.93;19.50;;;15.00;99.90;;;;;;5053529;28;20244;-91
2022/09/24 06:14:11;;;;;;;25.17;19.47;;;14.90;99.90;;;;;;5045748;28;20212;-92
2022/09/24 06:16:38;;;;;;;21.53;18.33;;;14.90;99.90;;;;;;5059706;28;20163;-90
2022/09/24 06:19:04;;;;;;;22.40;19.57;;;14.90;99.90;;;;;;5065486;28;20187;-89
2022/09/24 06:21:29;;;;;;;24.93;19.53;;;15.00;99.90;;;;;;5062065;28;20195;-91
2022/09/24 06:23:55;;;;;;;23.07;18.17;;;14.80;99.90;;;;;;5060147;28;20681;-91
2022/09/24 06:26:24;;;;;;;21.00;18.20;;;14.80;99.90;;;;;;5050127;28;20208;-92
2022/09/24 06:28:50;;;;;;;24.93;20.67;;;14.70;99.90;;;;;;5044408;28;20668;-92
2022/09/24 06:31:18;;;;;;;21.17;18.47;;;14.60;99.90;;;;;;5044689;28;20198;-91
2022/09/24 06:33:43;;;;;;;22.10;17.83;;;14.70;99.90;;;;;;5042852;28;20175;-91
2022/09/24 06:36:09;;;;;;;21.10;17.40;;;14.70;99.90;;;;;;5041443;28;20184;-90
2022/09/24 06:38:38;;;;;;;23.67;18.30;;;14.70;99.90;;;;;;4975016;28;20194;-94
2022/09/24 06:41:05;;;;;;;21.43;18.77;;;14.70;99.90;;;;;;5041687;28;20180;-93
2022/09/24 06:43:32;;;;;;;22.33;18.50;;;14.60;99.90;;;;;;5057425;28;20176;-91
2022/09/24 06:45:59;;;;;;;21.10;17.93;;;14.80;99.90;;;;;;5064304;28;20207;-92
2022/09/24 06:48:25;;;;;;;21.00;17.97;;;14.60;99.90;;;;;;5063751;28;20270;-91
2022/09/24 06:50:55;;;;;;;20.97;18.53;;;14.70;99.90;;;;;;5060528;28;20180;-91
2022/09/24 06:53:20;;;;;;;19.93;17.83;;;14.60;99.90;;;;;;5056233;28;20198;-92
2022/09/24 06:55:46;;;;;;;22.47;18.83;;;14.60;99.90;;;;;;5046243;28;20551;-92
2022/09/24 06:58:19;;;;;;;23.10;17.63;;;14.60;99.90;;;;;;5042821;28;20191;-91
2022/09/24 07:00:52;;;;;;;23.47;18.77;;;14.70;99.90;;;;;;5041623;28;20245;-94
2022/09/24 07:03:21;;;;;;;21.67;17.53;;;14.50;99.90;;;;;;5041247;28;20180;-93
2022/09/24 07:05:47;;;;;;;22.07;18.63;;;14.50;99.90;;;;;;5041401;28;20215;-91
2022/09/24 07:08:21;;;;;;;21.30;17.97;;;14.60;99.90;;;;;;5032557;28;20215;-93
2022/09/24 07:10:53;;;;;;;23.57;18.43;;;14.60;99.90;;;;;;4990926;28;20231;-92
2022/09/24 07:13:21;;;;;;;23.53;18.97;;;14.70;99.90;;;;;;4984024;28;20171;-94
2022/09/24 07:15:51;;;;;;;22.63;19.20;;;14.70;99.90;;;;;;5051629;28;20263;-91
2022/09/24 07:18:17;;;;;;;23.47;18.40;;;14.70;99.90;;;;;;5048967;28;20174;-92
2022/09/24 07:20:50;;;;;;;19.77;17.63;;;14.80;99.90;;;;;;5055539;28;20179;-92
2022/09/24 07:23:37;;;;;;;21.30;17.63;;;14.80;99.90;;;;;;5047747;28;20712;-93
2022/09/24 07:26:03;;;;;;;22.93;18.80;;;14.80;99.90;;;;;;5047089;28;20266;-92
2022/09/24 07:28:29;;;;;;;21.73;18.70;;;14.80;99.90;;;;;;5041307;28;20172;-92
2022/09/24 07:30:57;;;;;;;24.20;19.63;;;14.90;99.90;;;;;;5041779;28;20184;-92
2022/09/24 07:33:23;;;;;;;21.90;18.53;;;14.80;99.90;;;;;;5025595;28;20190;-90
2022/09/24 07:35:49;;;;;;;22.17;19.00;;;14.90;99.90;;;;;;5042842;28;20824;-92
2022/09/24 07:38:15;;;;;;;22.13;18.60;;;14.90;99.90;;;;;;5042126;28;20176;-91
2022/09/24 07:40:43;;;;;;;20.67;17.13;;;14.90;99.90;;;;;;5039799;28;20557;-90
2022/09/24 07:43:15;;;;;;;21.20;18.10;;;14.80;99.90;;;;;;5051768;28;20179;-91
2022/09/24 07:45:41;;;;;;;21.30;18.30;;;14.80;99.90;;;;;;5046797;28;20731;-92
2022/09/24 07:48:09;;;;;;;20.17;17.87;;;14.70;99.90;;;;;;5043734;28;20179;-93
2022/09/24 07:50:38;;;;;;;18.97;16.80;;;14.70;99.90;;;;;;5041093;28;20188;-89
2022/09/24 07:53:05;;;;;;;19.73;17.20;;;14.80;99.90;;;;;;5042343;28;20555;-91
2022/09/24 07:55:30;;;;;;;21.50;18.10;;;14.90;99.90;;;;;;5039141;28;20188;-90
2022/09/24 07:58:00;;;;;;;25.03;19.40;;;15.00;99.90;;;;;;5039363;28;20202;-92
2022/09/24 08:00:26;;;;;;;22.87;18.53;;;14.90;99.90;;;;;;5039177;28;20183;-89
2022/09/24 08:02:55;;;;;;;20.97;17.67;;;15.20;99.90;;;;;;5038940;28;20207;-90
2022/09/24 08:05:20;;;;;;;21.87;18.17;;;15.10;99.90;;;;;;5053777;28;20263;-89
2022/09/24 08:07:56;;;;;;;20.17;17.53;;;15.00;99.90;;;;;;5061432;28;20203;-91
2022/09/24 08:10:23;;;;;;;20.47;18.00;;;15.20;99.90;;;;;;5053688;28;20203;-90
2022/09/24 08:12:49;;;;;;;21.57;17.80;;;15.10;99.90;;;;;;5041582;28;20495;-92
2022/09/24 08:15:15;;;;;;;19.67;16.63;;;15.20;99.90;;;;;;5045289;28;20199;-90
2022/09/24 08:17:42;;;;;;;22.03;17.33;;;15.20;99.90;;;;;;5049671;28;20251;-90
2022/09/24 08:20:08;;;;;;;23.47;18.33;;;15.30;99.90;;;;;;5041358;28;20182;-93
2022/09/24 08:22:34;;;;;;;21.90;18.27;;;15.20;99.90;;;;;;5047369;28;20231;-92
2022/09/24 08:25:03;;;;;;;22.57;18.60;;;15.20;99.90;;;;;;5080262;28;20223;-91
2022/09/24 08:27:29;;;;;;;23.50;17.83;;;15.20;99.90;;;;;;5072012;28;20185;-91
2022/09/24 08:29:59;;;;;;;22.47;18.50;;;15.20;99.90;;;;;;5065409;28;20179;-91
2022/09/24 08:32:28;;;;;;;22.27;18.50;;;15.20;99.90;;;;;;5055678;28;20642;-91
2022/09/24 08:34:54;;;;;;;21.03;17.63;;;15.30;99.90;;;;;;5069369;28;20199;-91
2022/09/24 08:37:19;;;;;;;22.43;18.03;;;15.30;99.90;;;;;;5067247;28;20236;-91
2022/09/24 08:39:45;;;;;;;20.53;17.00;;;15.10;99.90;;;;;;5063939;28;20185;-89
2022/09/24 08:42:21;;;;;;;23.10;18.10;;;15.00;99.90;;;;;;5063592;28;20542;-90
2022/09/24 08:47:47;;;;;;;20.63;17.83;;;14.90;99.90;;;;;;4996321;28;20217;-91
2022/09/24 08:50:25;;;;;;;19.67;17.13;;;15.00;99.90;;;;;;4994756;28;20722;-90
2022/09/24 08:53:30;;;;;;;23.63;17.10;;;15.00;99.90;;;;;;5063183;28;20205;-91
2022/09/24 08:56:00;;;;;;;19.40;16.83;;;15.10;99.90;;;;;;4997177;28;20179;-89
2022/09/24 08:58:44;;;;;;;18.20;16.33;;;15.10;99.90;;;;;;5073488;28;20179;-92
2022/09/24 09:01:10;;;;;;;22.40;16.23;;;15.00;99.90;;;;;;5082226;28;20166;-90
2022/09/24 09:03:35;;;;;;;18.87;15.97;;;14.90;99.90;;;;;;5080742;28;20155;-88
2022/09/24 09:06:30;;;;;;;18.93;15.90;;;14.90;99.90;;;;;;5085651;28;20261;-89
2022/09/24 09:09:05;;;;;;;19.73;16.27;;;14.90;99.90;;;;;;5075959;22;20224;-92
2022/09/24 09:11:34;;;;;;;19.53;15.73;;;15.00;99.90;;;;;;5044728;28;20176;-91
2022/09/24 09:14:17;;;;;;;18.70;15.73;;;15.00;99.90;;;;;;5042056;28;20187;-92
2022/09/24 09:17:03;;;;;;;18.83;15.63;;;15.00;99.90;;;;;;5059998;28;20169;-91
2022/09/24 09:19:38;;;;;;;19.00;15.33;;;15.20;99.90;;;;;;5047222;28;20176;-91
2022/09/24 09:22:14;;;;;;;19.73;15.90;;;15.20;99.90;;;;;;5040869;28;20527;-92
2022/09/24 09:24:47;;;;;;;17.07;15.27;;;15.20;99.90;;;;;;5041676;28;20173;-92
2022/09/24 09:27:14;;;;;;;18.53;16.27;;;15.20;99.90;;;;;;5041231;28;20183;-92
2022/09/24 09:29:45;;;;;;;19.00;15.53;;;15.40;99.90;;;;;;5039481;28;20536;-92
2022/09/24 09:33:07;;;;;;;18.97;15.97;;;15.20;99.90;;;;;;5043037;28;20164;-91
2022/09/24 09:36:01;;;;;;;18.23;15.07;;;15.20;99.90;;;;;;4978637;28;20210;-92
2022/09/24 09:38:37;;;;;;;17.77;15.30;;;15.20;99.90;;;;;;5060979;28;20251;-91
2022/09/24 09:42:07;;;;;;;;;;;;;;;;;;;;;
2022/09/24 09:45:19;;;;;;;;;;;;;;;;;;;;;
2022/09/24 09:47:54;;;;;;;18.80;14.73;;;15.10;99.90;;;;;;4977931;28;20238;-91
2022/09/24 09:50:28;;;;;;;19.50;15.93;;;15.10;99.90;;;;;;5061643;28;20601;-91
2022/09/24 09:52:56;;;;;;;17.90;15.40;;;15.20;99.90;;;;;;5059974;28;20188;-91
2022/09/24 09:55:26;;;;;;;17.03;14.80;;;15.20;99.90;;;;;;5060130;28;20184;-90
2022/09/24 09:57:52;;;;;;;16.13;14.23;;;15.30;99.90;;;;;;5063958;28;20637;-91
2022/09/24 10:00:31;;;;;;;17.47;13.83;;;15.30;99.90;;;;;;5063133;28;20173;-92
2022/09/24 10:02:59;;;;;;;18.47;14.90;;;15.40;99.90;;;;;;5043518;28;20211;-91
2022/09/24 10:05:27;;;;;;;15.43;13.80;;;15.30;99.90;;;;;;5066789;28;20351;-90
2022/09/24 10:07:56;;;;;;;16.80;14.10;;;15.30;99.90;;;;;;5078049;28;20199;-89
2022/09/24 10:10:49;;;;;;;19.83;15.37;;;15.30;99.90;;;;;;5072467;28;20169;-90
2022/09/24 10:13:17;;;;;;;17.07;14.87;;;15.30;99.90;;;;;;5078022;28;20188;-90
2022/09/24 10:16:04;;;;;;;18.37;14.37;;;15.40;99.90;;;;;;5081885;28;20163;-88
2022/09/24 10:18:49;;;;;;;17.10;14.23;;;15.30;99.90;;;;;;5081769;28;20172;-89
2022/09/24 10:21:36;;;;;;;18.83;15.10;;;15.30;99.90;;;;;;5073886;28;20180;-91
2022/09/24 10:24:07;;;;;;;19.13;15.53;;;15.40;99.90;;;;;;5063288;28;20172;-91
2022/09/24 10:26:39;;;;;;;16.87;15.07;;;15.40;99.90;;;;;;5074316;28;20369;-91
2022/09/24 10:32:02;;;;;;;17.77;15.00;;;15.50;99.90;;;;;;5077978;28;20175;-91
2022/09/24 10:34:31;;;;;;;17.00;14.40;;;15.40;99.90;;;;;;5067121;28;20244;-93
2022/09/24 10:37:01;;;;;;;17.20;14.40;;;15.40;99.90;;;;;;5081078;28;20183;-91
2022/09/24 10:39:30;;;;;;;16.70;14.33;;;15.40;99.90;;;;;;5099047;28;20168;-95
2022/09/24 10:41:58;;;;;;;16.90;14.13;;;15.40;99.90;;;;;;5081176;28;20183;-89
2022/09/24 10:44:35;;;;;;;19.23;14.83;;;15.40;99.90;;;;;;5073229;28;20270;-89
2022/09/24 10:47:30;;;;;;;17.27;14.93;;;15.60;99.90;;;;;;5067582;28;20214;-88
2022/09/24 10:50:30;;;;;;;18.87;13.80;;;15.80;99.90;;;;;;5060571;28;20172;-88
2022/09/24 10:53:12;;;;;;;16.80;14.10;;;15.80;99.90;;;;;;5058783;28;20253;-89
2022/09/24 10:55:54;;;;;;;15.17;13.57;;;16.00;99.90;;;;;;5078001;28;20161;-89
2022/09/24 10:58:24;;;;;;;17.70;14.57;;;16.00;99.90;;;;;;5075691;28;20168;-90
2022/09/24 11:01:21;;;;;;;15.87;13.27;;;16.00;99.90;;;;;;5093387;28;20640;-89
2022/09/24 11:04:05;;;;;;;19.00;13.90;;;16.00;99.90;;;;;;5065402;28;20267;-90
2022/09/24 11:07:25;;;;;;;15.83;14.17;;;16.00;99.90;;;;;;5059479;28;20210;-89
2022/09/24 11:10:22;;;;;;;18.00;13.97;;;16.00;99.90;;;;;;5060635;28;20649;-92
2022/09/24 11:13:20;;;;;;;17.83;14.63;;;16.00;99.90;;;;;;5061609;28;20226;-90
2022/09/24 11:16:08;;;;;;;18.50;14.13;;;16.10;99.90;;;;;;5048516;28;20172;-89
2022/09/24 11:18:36;;;;;;;16.87;13.73;;;16.00;99.90;;;;;;5061641;28;20228;-88
2022/09/24 11:21:19;;;;;;;16.53;14.37;;;16.00;99.90;;;;;;5061713;28;20172;-87
2022/09/24 11:24:32;;;;;;;16.73;13.70;;;16.00;99.90;;;;;;5060224;28;20168;-89
2022/09/24 11:27:40;;;;;;;14.77;12.90;;;16.00;99.90;;;;;;5026660;28;20979;-88
2022/09/24 11:30:17;;;;;;;15.80;14.20;;;15.90;99.90;;;;;;5059610;28;20176;-88
2022/09/24 11:32:57;;;;;;;17.10;13.97;;;15.90;99.90;;;;;;5060140;28;20339;-88
2022/09/24 11:35:28;;;;;;;19.47;15.03;;;15.90;99.90;;;;;;5060580;28;20258;-88
2022/09/24 11:38:16;;;;;;;17.87;14.57;;;15.90;99.90;;;;;;5060396;28;20172;-88
2022/09/24 11:41:01;;;;;;;17.07;13.90;;;15.90;99.90;;;;;;5059366;28;20165;-86
2022/09/24 11:43:39;;;;;;;17.27;15.17;;;15.90;99.90;;;;;;5060011;28;20640;-87
2022/09/24 11:46:45;;;;;;;16.87;14.63;;;16.00;99.90;;;;;;5062056;28;20208;-88
2022/09/24 11:49:14;;;;;;;17.33;15.10;;;16.20;99.10;;;;;;5063384;28;20746;-88
2022/09/24 11:52:08;;;;;;;18.10;15.97;;;16.30;96.60;;;;;;5072583;28;20232;-90
2022/09/24 11:54:40;;;;;;;18.00;16.13;;;16.30;94.30;;;;;;5084574;28;20231;-86
2022/09/24 11:57:20;;;;;;;19.40;16.33;;;16.10;95.90;;;;;;5091820;28;20172;-87
2022/09/24 12:00:00;;;;;;;20.67;17.13;;;16.10;95.60;;;;;;5095746;28;20167;-86
2022/09/24 12:02:48;;;;;;;20.57;17.37;;;16.10;96.70;;;;;;5092074;28;20627;-90
2022/09/24 12:05:29;;;;;;;27.33;24.20;;;15.80;99.60;;;;;;5114433;28;20218;-88
2022/09/24 12:08:16;;;;;;;20.73;17.20;;;15.70;99.90;;;;;;5096944;28;20246;-85
2022/09/24 12:11:14;;;;;;;20.97;18.03;;;15.70;99.90;;;;;;5099733;28;20214;-86
2022/09/24 12:14:01;;;;;;;19.77;17.00;;;15.70;99.90;;;;;;5096473;28;20186;-88
2022/09/24 12:16:32;;;;;;;22.33;17.77;;;15.80;99.90;;;;;;5065934;28;20168;-86
2022/09/24 12:19:11;;;;;;;19.10;17.10;;;15.70;99.90;;;;;;5075462;28;20240;-89
2022/09/24 12:21:40;;;;;;;20.43;18.37;;;15.90;99.90;;;;;;5057362;28;20182;-90
2022/09/24 12:24:36;;;;;;;20.67;16.90;;;15.80;99.90;;;;;;5068780;28;20263;-89
2022/09/24 12:27:33;;;;;;;19.40;16.77;;;15.90;99.90;;;;;;5064308;28;20280;-91
2022/09/24 12:33:00;;;;;;;16.00;14.40;;;16.00;99.90;;;;;;5069867;28;20261;-89
2022/09/24 12:35:36;;;;;;;16.77;14.97;;;15.80;99.90;;;;;;5053487;28;20223;-92
2022/09/24 12:38:24;;;;;;;16.00;14.30;;;15.80;99.90;;;;;;5055895;28;20187;-94
2022/09/24 12:41:14;;;;;;;16.23;13.63;;;15.80;99.90;;;;;;5065623;28;20200;-93
2022/09/24 12:43:47;;;;;;;15.93;12.97;;;15.70;99.40;;;;;;5065643;28;20216;-95
2022/09/24 12:46:45;;;;;;;16.33;13.37;;;15.80;98.40;;;;;;5082947;28;20260;-96
2022/09/24 12:49:25;;;;;;;14.47;12.63;;;15.80;97.50;;;;;;4970009;28;20187;-95
2022/09/24 12:51:53;;;;;;;13.77;12.20;;;15.80;97.90;;;;;;5084686;28;20168;-91
2022/09/24 12:54:45;;;;;;;13.90;12.40;;;15.80;98.20;;;;;;5065347;28;20177;-91
2022/09/24 12:57:26;;;;;;;14.93;13.20;;;15.70;98.20;;;;;;5068690;28;20221;-92
2022/09/24 12:59:55;;;;;;;14.63;13.07;;;15.80;98.80;;;;;;5065716;28;20177;-92
2022/09/24 13:02:22;;;;;;;15.63;13.90;;;16.00;98.50;;;;;;5069245;28;20164;-91
2022/09/24 13:05:17;;;;;;;14.97;13.33;;;16.00;97.10;;;;;;5071644;28;20215;-92
2022/09/24 13:07:58;;;;;;;14.40;12.90;;;16.10;96.60;;;;;;5038676;28;20249;-93
2022/09/24 13:11:05;;;;;;;15.70;13.97;;;16.10;96.90;;;;;;5091537;28;20195;-93